createdAt,value
2023-05-05T00:01:57.029Z,100948.53
2023-05-05T00:04:26.383Z,100962.25
2023-05-05T00:06:55.736Z,100971.72
2023-05-05T00:09:25.037Z,100965.28
2023-05-05T00:11:54.100Z,100966.47
2023-05-05T00:14:24.843Z,100963.16
2023-05-05T00:16:54.494Z,100960.47
2023-05-05T00:19:23.658Z,100968.75
2023-05-05T00:21:52.928Z,100963.09
2023-05-05T00:24:22.132Z,100966.63
2023-05-05T00:26:51.175Z,100957.47
2023-05-05T00:29:20.265Z,100958.97
2023-05-05T00:31:52.063Z,100970.44
2023-05-05T00:34:22.368Z,100964.78
2023-05-05T00:36:51.637Z,100968.41
2023-05-05T00:39:20.625Z,100958.06
2023-05-05T00:41:49.710Z,100970.75
2023-05-05T00:44:18.820Z,100980.16
2023-05-05T00:46:47.971Z,100966.66
2023-05-05T00:49:18.429Z,100967.31
2023-05-05T00:51:47.668Z,100976.81
2023-05-05T00:54:17.693Z,100965.75
2023-05-05T00:56:48.237Z,100981.19
2023-05-05T00:59:17.633Z,100967.66
2023-05-05T01:01:46.971Z,100980.22
2023-05-05T01:04:16.187Z,100980.44
2023-05-05T01:07:00.857Z,100971.13
2023-05-05T01:09:45.769Z,100976.81
2023-05-05T01:12:26.025Z,100981.50
2023-05-05T01:15:03.936Z,100984.41
2023-05-05T01:17:42.448Z,100968.44
2023-05-05T01:20:20.831Z,100962.88
2023-05-05T01:22:54.989Z,100965.38
2023-05-05T01:25:46.096Z,100978.41
2023-05-05T01:28:29.177Z,100973.94
2023-05-05T01:31:10.820Z,100958.28
2023-05-05T01:33:49.107Z,100983.34
2023-05-05T01:36:24.359Z,100975.19
2023-05-05T01:38:58.890Z,100970.00
2023-05-05T01:41:32.059Z,100972.56
2023-05-05T01:44:04.030Z,100983.75
2023-05-05T01:46:35.386Z,100978.19
2023-05-05T01:49:07.015Z,100994.25
2023-05-05T01:51:36.929Z,100994.25
2023-05-05T01:54:09.398Z,100992.09
2023-05-05T01:56:41.345Z,100983.34
2023-05-05T01:59:12.459Z,100987.88
2023-05-05T02:01:44.884Z,100970.75
2023-05-05T02:04:16.309Z,100997.16
2023-05-05T02:06:50.472Z,100981.97
2023-05-05T02:09:20.226Z,100986.69
2023-05-05T02:11:50.610Z,101000.56
2023-05-05T02:14:21.956Z,100995.31
2023-05-05T02:16:53.501Z,100994.06
2023-05-05T02:19:28.958Z,100994.47
2023-05-05T02:21:58.400Z,100989.69
2023-05-05T02:24:27.761Z,100980.16
2023-05-05T02:26:59.437Z,100975.06
2023-05-05T02:29:33.120Z,100985.94
2023-05-05T02:32:06.464Z,100972.69
2023-05-05T02:34:41.451Z,100986.38
2023-05-05T02:37:19.357Z,100959.75
2023-05-05T02:39:59.081Z,100976.31
2023-05-05T02:42:37.651Z,100974.63
2023-05-05T02:45:23.772Z,100973.34
2023-05-05T02:47:53.360Z,100982.63
2023-05-05T02:50:26.154Z,100986.34
2023-05-05T02:53:06.841Z,100993.81
2023-05-05T02:55:43.188Z,100990.81
2023-05-05T02:58:23.065Z,100992.53
2023-05-05T03:01:03.141Z,100991.06
2023-05-05T03:03:45.559Z,100976.66
2023-05-05T03:06:21.458Z,100994.91
2023-05-05T03:08:56.514Z,100994.47
2023-05-05T03:11:33.121Z,100979.31
2023-05-05T03:14:10.177Z,100998.53
2023-05-05T03:16:43.266Z,100980.59
2023-05-05T03:19:15.681Z,100998.31
2023-05-05T03:21:46.784Z,101003.03
2023-05-05T03:24:16.851Z,101011.66
2023-05-05T03:26:51.047Z,101015.16
2023-05-05T03:29:23.710Z,101013.03
2023-05-05T03:31:53.096Z,101007.72
2023-05-05T03:34:22.575Z,101004.16
2023-05-05T03:36:55.036Z,100989.94
2023-05-05T03:39:24.431Z,101000.88
2023-05-05T03:41:53.647Z,100990.94
2023-05-05T03:44:23.987Z,100985.25
2023-05-05T03:46:53.206Z,100992.88
2023-05-05T03:49:28.536Z,101008.66
2023-05-05T03:52:00.319Z,100989.09
2023-05-05T03:54:30.038Z,101017.84
2023-05-05T03:57:00.215Z,101030.06
2023-05-05T03:59:31.516Z,101017.03
2023-05-05T04:02:00.921Z,101013.03
2023-05-05T04:04:29.975Z,101019.00
2023-05-05T04:07:00.478Z,101023.59
2023-05-05T04:09:29.620Z,101018.25
2023-05-05T04:11:59.065Z,101019.41
2023-05-05T04:14:29.152Z,101005.00
2023-05-05T04:16:58.527Z,101000.22
2023-05-05T04:19:28.056Z,101018.41
2023-05-05T04:21:57.268Z,101010.19
2023-05-05T04:24:27.807Z,101017.25
2023-05-05T04:26:59.042Z,101020.53
2023-05-05T04:29:30.265Z,100997.03
2023-05-05T04:31:59.333Z,101011.03
2023-05-05T04:34:28.528Z,101022.25
2023-05-05T04:36:57.535Z,101020.44
2023-05-05T04:39:35.463Z,100999.78
2023-05-05T04:42:06.654Z,101026.28
2023-05-05T04:44:36.047Z,101006.44
2023-05-05T04:47:06.094Z,101018.63
2023-05-05T04:49:35.888Z,100999.16
2023-05-05T04:52:05.491Z,101009.75
2023-05-05T04:54:39.597Z,101005.78
2023-05-05T04:57:09.858Z,101031.31
2023-05-05T04:59:38.906Z,101033.78
2023-05-05T05:02:08.013Z,101026.38
2023-05-05T05:04:37.523Z,101022.72
2023-05-05T05:07:06.679Z,101033.84
2023-05-05T05:09:38.486Z,101038.28
2023-05-05T05:12:10.462Z,101029.34
2023-05-05T05:14:43.966Z,101051.53
2023-05-05T05:17:13.401Z,101034.31
2023-05-05T05:19:43.278Z,101047.56
2023-05-05T05:22:13.201Z,101043.66
2023-05-05T05:24:45.979Z,101031.66
2023-05-05T05:27:18.937Z,101035.38
2023-05-05T05:29:51.614Z,101033.53
2023-05-05T05:32:21.181Z,101016.03
2023-05-05T05:34:51.104Z,101038.84
2023-05-05T05:37:20.389Z,101052.13
2023-05-05T05:39:55.355Z,101054.53
2023-05-05T05:42:25.944Z,101056.91
2023-05-05T05:44:55.678Z,101054.19
2023-05-05T05:47:25.021Z,101043.97
2023-05-05T05:49:54.350Z,101055.44
2023-05-05T05:52:23.507Z,101048.22
2023-05-05T05:54:54.142Z,101053.22
2023-05-05T05:57:24.708Z,101048.81
2023-05-05T05:59:55.355Z,101042.28
2023-05-05T06:02:26.479Z,101030.06
2023-05-05T06:04:56.659Z,101047.84
2023-05-05T06:07:26.496Z,101017.09
2023-05-05T06:10:14.465Z,101046.59
2023-05-05T06:13:05.660Z,101062.03
2023-05-05T06:15:39.171Z,101053.25
2023-05-05T06:18:08.801Z,101050.44
2023-05-05T06:20:38.016Z,101052.59
2023-05-05T06:23:07.878Z,101055.59
2023-05-05T06:25:41.548Z,101059.34
2023-05-05T06:28:16.343Z,101050.03
2023-05-05T06:30:45.720Z,101034.78
2023-05-05T06:33:18.604Z,101034.91
2023-05-05T06:35:49.579Z,101053.00
2023-05-05T06:38:18.728Z,101043.38
2023-05-05T06:40:50.860Z,101063.38
2023-05-05T06:43:22.074Z,101042.66
2023-05-05T06:45:56.801Z,101033.03
2023-05-05T06:48:27.643Z,101054.28
2023-05-05T06:50:59.494Z,101048.56
2023-05-05T06:53:28.967Z,101046.75
2023-05-05T06:55:59.750Z,101041.50
2023-05-05T06:58:29.345Z,101055.91
2023-05-05T07:01:01.328Z,101049.16
2023-05-05T07:03:31.112Z,101042.56
2023-05-05T07:06:02.053Z,101050.88
2023-05-05T07:08:31.205Z,101027.34
2023-05-05T07:11:02.504Z,101041.16
2023-05-05T07:13:32.267Z,101031.63
2023-05-05T07:16:01.916Z,101047.22
2023-05-05T07:18:31.076Z,101041.50
2023-05-05T07:21:01.427Z,101053.72
2023-05-05T07:23:32.825Z,101045.06
2023-05-05T07:26:03.285Z,101045.34
2023-05-05T07:28:32.152Z,101056.66
2023-05-05T07:31:06.898Z,101058.66
2023-05-05T07:33:36.492Z,101058.03
2023-05-05T07:36:06.422Z,101057.19
2023-05-05T07:38:37.515Z,101055.06
2023-05-05T07:41:08.048Z,101045.34
2023-05-05T07:43:38.819Z,101050.97
2023-05-05T07:46:08.881Z,101031.34
2023-05-05T07:48:39.146Z,101032.53
2023-05-05T07:51:08.963Z,101050.28
2023-05-05T07:53:40.012Z,101050.25
2023-05-05T07:56:11.035Z,101044.41
2023-05-05T07:58:40.164Z,101048.38
2023-05-05T08:01:11.249Z,101056.16
2023-05-05T08:03:40.893Z,101012.44
2023-05-05T08:06:11.058Z,101004.22
2023-05-05T08:08:42.692Z,101045.41
2023-05-05T08:11:13.200Z,101050.50
2023-05-05T08:13:43.358Z,101019.19
2023-05-05T08:16:13.077Z,101027.09
2023-05-05T08:18:43.048Z,101030.81
2023-05-05T08:21:13.574Z,101030.50
2023-05-05T08:23:46.918Z,101036.31
2023-05-05T08:26:17.812Z,101040.47
2023-05-05T08:28:48.732Z,101037.06
2023-05-05T08:31:18.110Z,101032.22
2023-05-05T08:33:47.255Z,101029.59
2023-05-05T08:36:18.397Z,101036.72
2023-05-05T08:38:47.927Z,101037.53
2023-05-05T08:41:20.280Z,100979.25
2023-05-05T08:43:59.290Z,101044.25
2023-05-05T08:46:31.257Z,100876.91
2023-05-05T08:49:07.298Z,101034.66
2023-05-05T08:51:43.413Z,101019.97
2023-05-05T08:54:19.220Z,101037.44
2023-05-05T08:56:52.353Z,101011.13
2023-05-05T08:59:30.418Z,101013.84
2023-05-05T09:02:02.678Z,100969.03
2023-05-05T09:04:32.491Z,101029.75
2023-05-05T09:07:04.203Z,101027.06
2023-05-05T09:09:34.153Z,101019.16
2023-05-05T09:12:05.079Z,101032.56
2023-05-05T09:14:34.435Z,101019.47
2023-05-05T09:17:04.956Z,101033.84
2023-05-05T09:19:34.201Z,100996.00
2023-05-05T09:22:03.475Z,101010.88
2023-05-05T09:24:32.641Z,101027.44
2023-05-05T09:27:02.296Z,101025.19
2023-05-05T09:29:32.856Z,100993.59
2023-05-05T09:32:05.880Z,101009.16
2023-05-05T09:34:35.938Z,101025.00
2023-05-05T09:37:06.182Z,100973.34
2023-05-05T09:39:35.971Z,101016.63
2023-05-05T09:42:05.279Z,100998.50
2023-05-05T09:44:36.937Z,101028.22
2023-05-05T09:47:18.001Z,101024.88
2023-05-05T09:50:00.932Z,101014.53
2023-05-05T09:52:30.795Z,101010.19
2023-05-05T09:54:59.798Z,100989.03
2023-05-05T09:57:30.819Z,100987.63
2023-05-05T10:00:02.686Z,100990.59
2023-05-05T10:02:41.170Z,101002.16
2023-05-05T10:05:12.850Z,101003.16
2023-05-05T10:07:43.554Z,101007.38
2023-05-05T10:10:16.429Z,100993.19
2023-05-05T10:12:48.015Z,101007.00
2023-05-05T10:15:19.167Z,100998.00
2023-05-05T10:18:06.052Z,100928.09
2023-05-05T10:20:39.736Z,100988.66
2023-05-05T10:23:16.249Z,100987.66
2023-05-05T10:25:52.769Z,100950.97
2023-05-05T10:28:32.996Z,100982.25
2023-05-05T10:31:10.064Z,100972.69
2023-05-05T10:33:54.485Z,100985.44
2023-05-05T10:36:24.850Z,100984.50
2023-05-05T10:38:59.641Z,100987.28
2023-05-05T10:41:36.569Z,100982.78
2023-05-05T10:44:07.305Z,100969.47
2023-05-05T10:46:40.629Z,100979.19
2023-05-05T10:49:16.956Z,100963.75
2023-05-05T10:51:55.086Z,100961.75
2023-05-05T10:54:31.779Z,100962.16
2023-05-05T10:57:02.770Z,100961.09
2023-05-05T10:59:42.492Z,100966.56
2023-05-05T11:02:23.921Z,100959.56
2023-05-05T11:05:07.021Z,100961.19
2023-05-05T11:07:36.131Z,100968.72
2023-05-05T11:10:06.637Z,100927.28
2023-05-05T11:13:14.381Z,100962.41
2023-05-05T11:15:43.914Z,100960.31
2023-05-05T11:18:38.815Z,100956.75
2023-05-05T11:21:17.189Z,100960.97
2023-05-05T11:23:51.079Z,100959.81
2023-05-05T11:26:36.416Z,100942.38
2023-05-05T11:29:06.540Z,100949.25
2023-05-05T11:31:35.713Z,100949.66
2023-05-05T11:34:29.406Z,100945.63
2023-05-05T11:37:01.894Z,100941.69
2023-05-05T11:39:39.628Z,100943.97
2023-05-05T11:42:25.920Z,100945.34
2023-05-05T11:44:55.996Z,100938.53
2023-05-05T11:47:32.946Z,100933.59
2023-05-05T11:50:21.785Z,100938.06
2023-05-05T11:52:51.188Z,100935.53
2023-05-05T11:55:26.992Z,100932.09
2023-05-05T11:57:56.092Z,100923.06
2023-05-05T12:00:35.306Z,100927.22
2023-05-05T12:03:05.779Z,100914.03
2023-05-05T12:05:37.075Z,100913.31
2023-05-05T12:08:06.686Z,100918.03
2023-05-05T12:10:36.398Z,100921.56
2023-05-05T12:13:05.863Z,100914.16
2023-05-05T12:15:35.543Z,100919.47
2023-05-05T12:18:06.901Z,100916.63
2023-05-05T12:20:37.717Z,100868.94
2023-05-05T12:23:08.336Z,100910.78
2023-05-05T12:25:50.098Z,100892.13
2023-05-05T12:28:20.854Z,100900.00
2023-05-05T12:30:58.782Z,100890.88
2023-05-05T12:33:29.311Z,100892.63
2023-05-05T12:35:59.922Z,100895.03
2023-05-05T12:38:29.430Z,100894.59
2023-05-05T12:40:58.727Z,100889.50
2023-05-05T12:43:31.229Z,100894.06
2023-05-05T12:46:05.138Z,100897.16
2023-05-05T12:48:38.226Z,100894.31
2023-05-05T12:51:20.114Z,100845.06
2023-05-05T12:53:50.208Z,100881.56
2023-05-05T12:56:51.458Z,100889.09
2023-05-05T12:59:32.835Z,100878.78
2023-05-05T13:02:02.580Z,100876.78
2023-05-05T13:04:31.806Z,100883.53
2023-05-05T13:07:12.959Z,100873.00
2023-05-05T13:09:43.134Z,100884.38
2023-05-05T13:12:12.899Z,100880.78
2023-05-05T13:14:46.573Z,100877.13
2023-05-05T13:17:16.097Z,100884.91
2023-05-05T13:19:47.261Z,100835.78
2023-05-05T13:22:18.147Z,100879.06
2023-05-05T13:24:52.372Z,100876.06
2023-05-05T13:27:21.955Z,100873.16
2023-05-05T13:29:51.557Z,100878.97
2023-05-05T13:32:20.981Z,100877.91
2023-05-05T13:34:52.762Z,100853.84
2023-05-05T13:37:23.543Z,100869.97
2023-05-05T13:39:53.196Z,100824.41
2023-05-05T13:42:22.506Z,100878.25
2023-05-05T13:44:55.784Z,100866.66
2023-05-05T13:47:35.744Z,100863.56
2023-05-05T13:50:05.767Z,100866.66
2023-05-05T13:52:36.363Z,100840.53
2023-05-05T13:55:09.409Z,100864.16
2023-05-05T13:57:39.498Z,100832.75
2023-05-05T14:00:09.869Z,100847.38
2023-05-05T14:02:39.003Z,100869.25
2023-05-05T14:05:09.883Z,100859.69
2023-05-05T14:07:40.494Z,100868.03
2023-05-05T14:10:14.132Z,100838.78
2023-05-05T14:12:47.661Z,100854.41
2023-05-05T14:15:17.193Z,100849.75
2023-05-05T14:17:46.554Z,100858.38
2023-05-05T14:20:16.064Z,100852.72
2023-05-05T14:22:48.837Z,100846.84
2023-05-05T14:25:18.691Z,100857.38
2023-05-05T14:27:48.317Z,100845.25
2023-05-05T14:30:18.300Z,100841.44
2023-05-05T14:32:48.076Z,100821.47
2023-05-05T14:35:17.299Z,100845.59
2023-05-05T14:37:47.767Z,100851.00
2023-05-05T14:40:17.480Z,100849.06
2023-05-05T14:42:46.667Z,100844.09
2023-05-05T14:45:18.035Z,100842.59
2023-05-05T14:47:48.939Z,100843.03
2023-05-05T14:50:18.071Z,100830.91
2023-05-05T14:52:54.514Z,100820.44
2023-05-05T14:55:25.060Z,100841.00
2023-05-05T14:57:54.210Z,100836.09
2023-05-05T15:00:23.886Z,100841.34
2023-05-05T15:02:53.516Z,100803.81
2023-05-05T15:05:23.055Z,100845.31
2023-05-05T15:07:53.559Z,100833.41
2023-05-05T15:10:23.264Z,100838.09
2023-05-05T15:12:52.901Z,100836.66
2023-05-05T15:15:25.729Z,100845.69
2023-05-05T15:17:55.282Z,100816.72
2023-05-05T15:20:25.175Z,100832.56
2023-05-05T15:22:56.168Z,100792.06
2023-05-05T15:25:26.177Z,100835.50
2023-05-05T15:27:56.601Z,100839.75
2023-05-05T15:30:26.959Z,100851.03
2023-05-05T15:32:56.217Z,100830.94
2023-05-05T15:35:29.713Z,100805.34
2023-05-05T15:38:01.170Z,100850.53
2023-05-05T15:40:31.954Z,100847.03
2023-05-05T15:43:02.952Z,100827.53
2023-05-05T15:45:32.554Z,100845.16
2023-05-05T15:48:02.166Z,100815.94
2023-05-05T15:50:31.870Z,100850.66
2023-05-05T15:53:02.909Z,100842.50
2023-05-05T15:55:32.713Z,100845.25
2023-05-05T15:58:02.297Z,100859.97
2023-05-05T16:00:33.411Z,100848.66
2023-05-05T16:03:05.529Z,100852.00
2023-05-05T16:05:34.831Z,100848.97
2023-05-05T16:08:09.764Z,100864.66
2023-05-05T16:10:39.743Z,100859.28
2023-05-05T16:13:09.694Z,100859.41
2023-05-05T16:15:42.457Z,100832.63
2023-05-05T16:18:12.501Z,100861.06
2023-05-05T16:20:44.819Z,100861.69
2023-05-05T16:23:16.459Z,100862.94
2023-05-05T16:25:46.242Z,100868.03
2023-05-05T16:28:15.855Z,100859.59
2023-05-05T16:30:45.598Z,100868.91
2023-05-05T16:33:15.592Z,100868.44
2023-05-05T16:35:50.977Z,100867.06
2023-05-05T16:38:27.302Z,100857.75
2023-05-05T16:40:56.711Z,100876.41
2023-05-05T16:43:26.217Z,100869.75
2023-05-05T16:45:56.083Z,100869.03
2023-05-05T16:48:25.594Z,100855.69
2023-05-05T16:50:57.269Z,100876.03
2023-05-05T16:53:28.867Z,100869.41
2023-05-05T16:55:59.000Z,100869.97
2023-05-05T16:58:29.240Z,100861.63
2023-05-05T17:01:02.223Z,100874.22
2023-05-05T17:03:36.468Z,100853.69
2023-05-05T17:06:13.227Z,100876.78
2023-05-05T17:08:49.937Z,100878.75
2023-05-05T17:11:21.910Z,100889.81
2023-05-05T17:13:52.017Z,100869.00
2023-05-05T17:16:35.413Z,100820.56
2023-05-05T17:19:05.482Z,100884.41
2023-05-05T17:21:35.189Z,100862.47
2023-05-05T17:24:07.252Z,100869.56
2023-05-05T17:26:36.832Z,100888.81
2023-05-05T17:29:06.968Z,100869.94
2023-05-05T17:31:39.436Z,100893.63
2023-05-05T17:34:11.353Z,100887.38
2023-05-05T17:36:44.806Z,100878.84
2023-05-05T17:39:27.523Z,100844.31
2023-05-05T17:41:57.617Z,100894.97
2023-05-05T17:44:39.871Z,100870.69
2023-05-05T17:47:15.690Z,100909.56
2023-05-05T17:49:45.594Z,100900.78
2023-05-05T17:52:15.497Z,100901.47
2023-05-05T17:54:46.417Z,100908.63
2023-05-05T17:57:17.065Z,100873.72
2023-05-05T17:59:47.374Z,100887.06
2023-05-05T18:02:18.140Z,100906.28
2023-05-05T18:04:47.941Z,100900.16
2023-05-05T18:07:17.897Z,100906.81
2023-05-05T18:09:57.392Z,100906.09
2023-05-05T18:12:27.577Z,100897.94
2023-05-05T18:14:56.858Z,100928.63
2023-05-05T18:17:26.476Z,100929.59
2023-05-05T18:19:58.303Z,100924.25
2023-05-05T18:22:29.426Z,100937.22
2023-05-05T18:25:00.842Z,100908.78
2023-05-05T18:27:32.671Z,100910.25
2023-05-05T18:30:06.372Z,100919.59
2023-05-05T18:32:39.007Z,100937.81
2023-05-05T18:35:09.144Z,100936.28
2023-05-05T18:37:39.777Z,100943.22
2023-05-05T18:40:14.310Z,100877.75
2023-05-05T18:42:47.395Z,100927.88
2023-05-05T18:45:17.023Z,100947.06
2023-05-05T18:47:46.409Z,100943.47
2023-05-05T18:50:15.970Z,100945.94
2023-05-05T18:52:45.791Z,100897.94
2023-05-05T18:55:16.968Z,100940.56
2023-05-05T18:57:46.981Z,100949.13
2023-05-05T19:00:19.980Z,100950.56
2023-05-05T19:02:49.830Z,100939.88
2023-05-05T19:05:19.616Z,100926.63
2023-05-05T19:07:52.206Z,100946.72
2023-05-05T19:10:22.777Z,100935.56
2023-05-05T19:12:52.009Z,100942.13
2023-05-05T19:15:23.998Z,100943.72
2023-05-05T19:17:55.862Z,100902.69
2023-05-05T19:20:25.110Z,100947.03
2023-05-05T19:22:55.264Z,100944.22
2023-05-05T19:25:25.772Z,100933.13
2023-05-05T19:27:56.117Z,100943.00
2023-05-05T19:30:25.564Z,100959.09
2023-05-05T19:32:55.498Z,100955.31
2023-05-05T19:35:24.706Z,100957.25
2023-05-05T19:37:58.026Z,100964.56
2023-05-05T19:40:29.098Z,100950.94
2023-05-05T19:42:58.795Z,100975.03
2023-05-05T19:45:28.052Z,100964.81
2023-05-05T19:47:58.073Z,100966.16
2023-05-05T19:50:28.716Z,100971.88
2023-05-05T19:52:58.164Z,100932.31
2023-05-05T19:55:33.303Z,100949.00
2023-05-05T19:58:07.247Z,100961.72
2023-05-05T20:00:39.277Z,100951.34
2023-05-05T20:03:08.967Z,100973.00
2023-05-05T20:05:38.981Z,100960.59
2023-05-05T20:08:08.784Z,100969.31
2023-05-05T20:10:54.540Z,100980.50
2023-05-05T20:13:28.161Z,100976.88
2023-05-05T20:16:00.715Z,100980.25
2023-05-05T20:18:32.734Z,100974.41
2023-05-05T20:21:03.636Z,100979.16
2023-05-05T20:23:34.073Z,100980.25
2023-05-05T20:26:08.005Z,100981.69
2023-05-05T20:28:40.412Z,100966.75
2023-05-05T20:31:12.149Z,100984.22
2023-05-05T20:33:43.645Z,100943.56
2023-05-05T20:36:13.441Z,100988.19
2023-05-05T20:38:42.857Z,100985.16
2023-05-05T20:41:16.482Z,100993.53
2023-05-05T20:43:45.624Z,101011.72
2023-05-05T20:46:14.732Z,101017.66
2023-05-05T20:48:44.554Z,101006.66
2023-05-05T20:51:16.834Z,100981.66
2023-05-05T20:53:47.287Z,101014.56
2023-05-05T20:56:17.661Z,101020.75
2023-05-05T20:58:47.147Z,101010.94
2023-05-05T21:01:16.469Z,101014.78
2023-05-05T21:03:46.190Z,101022.34
2023-05-05T21:06:17.587Z,101026.09
2023-05-05T21:08:47.343Z,100998.06
2023-05-05T21:11:18.121Z,101024.56
2023-05-05T21:13:47.602Z,101031.94
2023-05-05T21:16:17.059Z,101038.88
2023-05-05T21:18:47.593Z,101045.03
2023-05-05T21:21:17.062Z,101006.75
2023-05-05T21:23:48.536Z,101043.66
2023-05-05T21:26:19.302Z,101028.00
2023-05-05T21:28:48.956Z,101048.72
2023-05-05T21:31:22.275Z,101032.03
2023-05-05T21:33:51.860Z,101049.13
2023-05-05T21:36:21.429Z,101017.94
2023-05-05T21:38:51.129Z,101047.44
2023-05-05T21:41:22.246Z,101053.88
2023-05-05T21:43:51.541Z,101054.66
2023-05-05T21:46:21.205Z,101049.75
2023-05-05T21:48:50.571Z,101037.03
2023-05-05T21:51:22.742Z,101062.91
2023-05-05T21:53:52.330Z,101054.53
2023-05-05T21:56:23.222Z,101063.97
2023-05-05T21:58:52.228Z,101057.94
2023-05-05T22:01:21.514Z,101041.59
2023-05-05T22:03:50.994Z,101058.13
2023-05-05T22:06:20.636Z,101074.34
2023-05-05T22:08:50.436Z,101077.00
2023-05-05T22:11:20.358Z,101069.19
2023-05-05T22:13:51.906Z,101066.44
2023-05-05T22:16:21.141Z,101021.44
2023-05-05T22:18:50.975Z,101078.59
2023-05-05T22:21:20.506Z,101065.75
2023-05-05T22:23:49.806Z,101073.56
2023-05-05T22:26:18.817Z,101073.34
2023-05-05T22:28:47.846Z,101018.00
2023-05-05T22:31:18.786Z,101068.03
2023-05-05T22:33:48.148Z,101078.47
2023-05-05T22:36:17.311Z,101074.66
2023-05-05T22:38:48.742Z,101078.28
2023-05-05T22:41:45.257Z,100929.81
2023-05-05T22:44:15.315Z,101002.00
2023-05-05T22:46:46.103Z,101080.75
2023-05-05T22:49:16.192Z,101082.84
2023-05-05T22:51:45.328Z,101027.03
2023-05-05T22:54:14.517Z,101087.41
2023-05-05T22:56:43.706Z,101066.44
2023-05-05T22:59:13.115Z,101070.97
2023-05-05T23:01:42.475Z,101037.69
2023-05-05T23:04:13.138Z,101070.88
2023-05-05T23:06:42.611Z,101058.22
2023-05-05T23:09:11.919Z,101021.53
2023-05-05T23:11:41.026Z,101065.97
2023-05-05T23:14:10.242Z,101075.72
2023-05-05T23:16:39.365Z,101081.81
2023-05-05T23:19:08.618Z,101080.97
2023-05-05T23:21:49.306Z,101080.84
2023-05-05T23:24:21.576Z,101073.19
2023-05-05T23:26:52.075Z,101086.25
2023-05-05T23:29:24.027Z,101047.41
2023-05-05T23:31:57.009Z,101082.00
2023-05-05T23:34:28.309Z,101085.44
2023-05-05T23:36:59.010Z,101092.66
2023-05-05T23:39:28.260Z,101074.09
2023-05-05T23:41:57.747Z,101082.19
2023-05-05T23:44:27.779Z,101094.25
2023-05-05T23:46:56.980Z,101089.94
2023-05-05T23:49:26.656Z,101071.47
2023-05-05T23:51:55.850Z,101087.78
2023-05-05T23:54:26.345Z,101082.34
2023-05-05T23:56:55.787Z,101092.88
2023-05-05T23:59:25.344Z,101087.63
